sensor_id;sensor_type;location;lat;lon;timestamp;P1;P2;P0
71858;PMS5003;59713;50.866;4.324;2023-03-01T00:00:04;24;19;
71858;PMS5003;59713;50.866;4.324;2023-03-01T00:01:04;24;19;
71858;PMS5003;59713;50.866;4.324;2023-03-01T00:02:03;22;22;
71858;PMS5003;59713;50.866;4.324;2023-03-01T00:03:03;22;22;
71858;PMS5003;59713;50.866;4.324;2023-03-01T00:03:03;22;22;
71858;PMS5003;59713;50.866;4.324;2023-03-01T00:04:03;22;22;
71858;PMS5003;59713;50.866;4.324;2023-03-01T00:05:03;30;30;
71858;PMS5003;59713;50.866;4.324;2023-03-01T00:06:04;30;30;
71858;PMS5003;59713;50.866;4.324;2023-03-01T00:07:03;30;30;
71858;PMS5003;59713;50.866;4.324;2023-03-01T00:08:03;23;21;
71858;PMS5003;59713;50.866;4.324;2023-03-01T00:09:03;23;21;
71858;PMS5003;59713;50.866;4.324;2023-03-01T00:10:03;23;21;
71858;PMS5003;59713;50.866;4.324;2023-03-01T00:11:04;23;20;
71858;PMS5003;59713;50.866;4.324;2023-03-01T00:12:03;23;20;
71858;PMS5003;59713;50.866;4.324;2023-03-01T00:12:03;23;20;
71858;PMS5003;59713;50.866;4.324;2023-03-01T00:13:03;23;20;
71858;PMS5003;59713;50.866;4.324;2023-03-01T00:14:03;28;24;
71858;PMS5003;59713;50.866;4.324;2023-03-01T00:15:03;28;24;
71858;PMS5003;59713;50.866;4.324;2023-03-01T00:16:04;28;24;
71858;PMS5003;59713;50.866;4.324;2023-03-01T00:17:03;36;27;
71858;PMS5003;59713;50.866;4.324;2023-03-01T00:18:03;36;27;
71858;PMS5003;59713;50.866;4.324;2023-03-01T00:19:03;36;27;
71858;PMS5003;59713;50.866;4.324;2023-03-01T00:20:03;26;23;
71858;PMS5003;59713;50.866;4.324;2023-03-01T00:21:03;26;23;
71858;PMS5003;59713;50.866;4.324;2023-03-01T00:22:03;26;23;
71858;PMS5003;59713;50.866;4.324;2023-03-01T00:22:03;26;23;
71858;PMS5003;59713;50.866;4.324;2023-03-01T00:23:03;28;26;
71858;PMS5003;59713;50.866;4.324;2023-03-01T00:24:03;28;26;
71858;PMS5003;59713;50.866;4.324;2023-03-01T00:25:03;28;26;
71858;PMS5003;59713;50.866;4.324;2023-03-01T00:26:05;24;23;
71858;PMS5003;59713;50.866;4.324;2023-03-01T00:27:03;24;23;
71858;PMS5003;59713;50.866;4.324;2023-03-01T00:28:03;24;23;
71858;PMS5003;59713;50.866;4.324;2023-03-01T00:29:03;27;22;
71858;PMS5003;59713;50.866;4.324;2023-03-01T00:30:03;27;22;
71858;PMS5003;59713;50.866;4.324;2023-03-01T00:31:03;27;22;
71858;PMS5003;59713;50.866;4.324;2023-03-01T00:32:03;26;25;
71858;PMS5003;59713;50.866;4.324;2023-03-01T00:32:03;26;25;
71858;PMS5003;59713;50.866;4.324;2023-03-01T00:33:03;26;25;
71858;PMS5003;59713;50.866;4.324;2023-03-01T00:34:04;26;25;
71858;PMS5003;59713;50.866;4.324;2023-03-01T00:35:03;30;28;
71858;PMS5003;59713;50.866;4.324;2023-03-01T00:36:03;30;28;
71858;PMS5003;59713;50.866;4.324;2023-03-01T00:37:03;30;28;
71858;PMS5003;59713;50.866;4.324;2023-03-01T00:38:03;35;26;
71858;PMS5003;59713;50.866;4.324;2023-03-01T00:39:04;35;26;
71858;PMS5003;59713;50.866;4.324;2023-03-01T00:40:04;35;26;
71858;PMS5003;59713;50.866;4.324;2023-03-01T00:41:04;30;27;
71858;PMS5003;59713;50.866;4.324;2023-03-01T00:41:04;30;27;
71858;PMS5003;59713;50.866;4.324;2023-03-01T00:42:03;30;27;
71858;PMS5003;59713;50.866;4.324;2023-03-01T00:43:03;30;27;
71858;PMS5003;59713;50.866;4.324;2023-03-01T00:44:03;30;26;
71858;PMS5003;59713;50.866;4.324;2023-03-01T00:45:03;30;26;
71858;PMS5003;59713;50.866;4.324;2023-03-01T00:46:04;30;26;
71858;PMS5003;59713;50.866;4.324;2023-03-01T00:47:03;31;29;
71858;PMS5003;59713;50.866;4.324;2023-03-01T00:48:03;31;29;
71858;PMS5003;59713;50.866;4.324;2023-03-01T00:49:03;31;29;
71858;PMS5003;59713;50.866;4.324;2023-03-01T00:50:03;28;27;
71858;PMS5003;59713;50.866;4.324;2023-03-01T00:51:04;28;27;
71858;PMS5003;59713;50.866;4.324;2023-03-01T00:51:04;28;27;
71858;PMS5003;59713;50.866;4.324;2023-03-01T00:52:03;28;27;
71858;PMS5003;59713;50.866;4.324;2023-03-01T00:53:03;28;24;
71858;PMS5003;59713;50.866;4.324;2023-03-01T00:54:03;28;24;
71858;PMS5003;59713;50.866;4.324;2023-03-01T00:55:03;28;24;
71858;PMS5003;59713;50.866;4.324;2023-03-01T00:56:04;29;26;
71858;PMS5003;59713;50.866;4.324;2023-03-01T00:57:03;29;26;
71858;PMS5003;59713;50.866;4.324;2023-03-01T00:58:03;29;26;
71858;PMS5003;59713;50.866;4.324;2023-03-01T00:59:03;24;22;
71858;PMS5003;59713;50.866;4.324;2023-03-01T01:00:03;24;22;
71858;PMS5003;59713;50.866;4.324;2023-03-01T01:00:04;24;22;
71858;PMS5003;59713;50.866;4.324;2023-03-01T01:01:06;24;22;
71858;PMS5003;59713;50.866;4.324;2023-03-01T01:02:03;5;2;
71858;PMS5003;59713;50.866;4.324;2023-03-01T01:03:03;5;2;
71858;PMS5003;59713;50.866;4.324;2023-03-01T01:04:04;5;2;
71858;PMS5003;59713;50.866;4.324;2023-03-01T01:05:04;27;25;
71858;PMS5003;59713;50.866;4.324;2023-03-01T01:06:03;27;25;
71858;PMS5003;59713;50.866;4.324;2023-03-01T01:07:03;27;25;
71858;PMS5003;59713;50.866;4.324;2023-03-01T01:08:03;31;25;
71858;PMS5003;59713;50.866;4.324;2023-03-01T01:09:04;31;25;
71858;PMS5003;59713;50.866;4.324;2023-03-01T01:09:04;31;25;
71858;PMS5003;59713;50.866;4.324;2023-03-01T01:10:03;31;25;
71858;PMS5003;59713;50.866;4.324;2023-03-01T01:11:03;21;20;
71858;PMS5003;59713;50.866;4.324;2023-03-01T01:12:03;21;20;
71858;PMS5003;59713;50.866;4.324;2023-03-01T01:13:03;21;20;
71858;PMS5003;59713;50.866;4.324;2023-03-01T01:14:03;21;21;
71858;PMS5003;59713;50.866;4.324;2023-03-01T01:15:03;21;21;
71858;PMS5003;59713;50.866;4.324;2023-03-01T01:16:03;21;21;
71858;PMS5003;59713;50.866;4.324;2023-03-01T01:17:03;25;23;
71858;PMS5003;59713;50.866;4.324;2023-03-01T01:18:03;25;23;
71858;PMS5003;59713;50.866;4.324;2023-03-01T01:19:03;25;23;
71858;PMS5003;59713;50.866;4.324;2023-03-01T01:19:03;25;23;
71858;PMS5003;59713;50.866;4.324;2023-03-01T01:20:03;25;22;
71858;PMS5003;59713;50.866;4.324;2023-03-01T01:21:04;25;22;
71858;PMS5003;59713;50.866;4.324;2023-03-01T01:22:03;25;22;
71858;PMS5003;59713;50.866;4.324;2023-03-01T01:23:05;22;22;
71858;PMS5003;59713;50.866;4.324;2023-03-01T01:24:04;22;22;
71858;PMS5003;59713;50.866;4.324;2023-03-01T01:25:03;22;22;
71858;PMS5003;59713;50.866;4.324;2023-03-01T01:26:04;29;24;
71858;PMS5003;59713;50.866;4.324;2023-03-01T01:27:03;29;24;
71858;PMS5003;59713;50.866;4.324;2023-03-01T01:28:03;29;24;
71858;PMS5003;59713;50.866;4.324;2023-03-01T01:28:03;29;24;
71858;PMS5003;59713;50.866;4.324;2023-03-01T01:29:04;28;27;
71858;PMS5003;59713;50.866;4.324;2023-03-01T01:30:04;28;27;
71858;PMS5003;59713;50.866;4.324;2023-03-01T01:31:04;28;27;
71858;PMS5003;59713;50.866;4.324;2023-03-01T01:32:03;21;19;
71858;PMS5003;59713;50.866;4.324;2023-03-01T01:33:03;21;19;
71858;PMS5003;59713;50.866;4.324;2023-03-01T01:34:04;21;19;
71858;PMS5003;59713;50.866;4.324;2023-03-01T01:35:03;23;21;
71858;PMS5003;59713;50.866;4.324;2023-03-01T01:36:04;23;21;
71858;PMS5003;59713;50.866;4.324;2023-03-01T01:37:03;23;21;
71858;PMS5003;59713;50.866;4.324;2023-03-01T01:37:03;23;21;
71858;PMS5003;59713;50.866;4.324;2023-03-01T01:38:03;25;22;
71858;PMS5003;59713;50.866;4.324;2023-03-01T01:39:03;25;22;
71858;PMS5003;59713;50.866;4.324;2023-03-01T01:40:04;25;22;
71858;PMS5003;59713;50.866;4.324;2023-03-01T01:41:03;25;22;
71858;PMS5003;59713;50.866;4.324;2023-03-01T01:42:03;25;22;
71858;PMS5003;59713;50.866;4.324;2023-03-01T01:43:20;25;22;
71858;PMS5003;59713;50.866;4.324;2023-03-01T01:44:12;24;22;
71858;PMS5003;59713;50.866;4.324;2023-03-01T01:45:24;24;22;
71858;PMS5003;59713;50.866;4.324;2023-03-01T01:46:04;24;22;
71858;PMS5003;59713;50.866;4.324;2023-03-01T01:46:04;24;22;
71858;PMS5003;59713;50.866;4.324;2023-03-01T01:47:04;25;22;
71858;PMS5003;59713;50.866;4.324;2023-03-01T01:48:03;25;22;
71858;PMS5003;59713;50.866;4.324;2023-03-01T01:49:04;25;22;
71858;PMS5003;59713;50.866;4.324;2023-03-01T01:50:03;25;22;
71858;PMS5003;59713;50.866;4.324;2023-03-01T01:51:03;25;22;
71858;PMS5003;59713;50.866;4.324;2023-03-01T01:52:05;25;22;
71858;PMS5003;59713;50.866;4.324;2023-03-01T01:53:05;24;23;
71858;PMS5003;59713;50.866;4.324;2023-03-01T01:54:05;24;23;
71858;PMS5003;59713;50.866;4.324;2023-03-01T01:55:04;24;23;
71858;PMS5003;59713;50.866;4.324;2023-03-01T01:55:05;24;23;
71858;PMS5003;59713;50.866;4.324;2023-03-01T01:56:03;29;24;
71858;PMS5003;59713;50.866;4.324;2023-03-01T01:57:05;29;24;
71858;PMS5003;59713;50.866;4.324;2023-03-01T01:58:04;29;24;
71858;PMS5003;59713;50.866;4.324;2023-03-01T01:59:03;27;24;
71858;PMS5003;59713;50.866;4.324;2023-03-01T02:00:05;27;24;
71858;PMS5003;59713;50.866;4.324;2023-03-01T02:01:03;27;24;
71858;PMS5003;59713;50.866;4.324;2023-03-01T02:02:03;30;26;
71858;PMS5003;59713;50.866;4.324;2023-03-01T02:03:04;30;26;
71858;PMS5003;59713;50.866;4.324;2023-03-01T02:04:03;30;26;
71858;PMS5003;59713;50.866;4.324;2023-03-01T02:04:03;30;26;
71858;PMS5003;59713;50.866;4.324;2023-03-01T02:05:05;24;23;
71858;PMS5003;59713;50.866;4.324;2023-03-01T02:06:04;24;23;
71858;PMS5003;59713;50.866;4.324;2023-03-01T02:07:05;24;23;
71858;PMS5003;59713;50.866;4.324;2023-03-01T02:08:03;24;21;
71858;PMS5003;59713;50.866;4.324;2023-03-01T02:09:05;24;21;
71858;PMS5003;59713;50.866;4.324;2023-03-01T02:10:04;24;21;
71858;PMS5003;59713;50.866;4.324;2023-03-01T02:11:03;28;26;
71858;PMS5003;59713;50.866;4.324;2023-03-01T02:12:03;28;26;
71858;PMS5003;59713;50.866;4.324;2023-03-01T02:13:03;28;26;
71858;PMS5003;59713;50.866;4.324;2023-03-01T02:13:03;28;26;
71858;PMS5003;59713;50.866;4.324;2023-03-01T02:14:03;26;25;
71858;PMS5003;59713;50.866;4.324;2023-03-01T02:15:04;26;25;
71858;PMS5003;59713;50.866;4.324;2023-03-01T02:16:03;26;25;
71858;PMS5003;59713;50.866;4.324;2023-03-01T02:17:03;27;22;
71858;PMS5003;59713;50.866;4.324;2023-03-01T02:18:04;27;22;
71858;PMS5003;59713;50.866;4.324;2023-03-01T02:19:03;27;22;
71858;PMS5003;59713;50.866;4.324;2023-03-01T02:20:07;23;22;
71858;PMS5003;59713;50.866;4.324;2023-03-01T02:21:07;23;22;
71858;PMS5003;59713;50.866;4.324;2023-03-01T02:22:06;23;22;
71858;PMS5003;59713;50.866;4.324;2023-03-01T02:22:06;23;22;
71858;PMS5003;59713;50.866;4.324;2023-03-01T02:23:03;26;22;
71858;PMS5003;59713;50.866;4.324;2023-03-01T02:24:04;26;22;
71858;PMS5003;59713;50.866;4.324;2023-03-01T02:25:06;26;22;
71858;PMS5003;59713;50.866;4.324;2023-03-01T02:26:04;22;22;
71858;PMS5003;59713;50.866;4.324;2023-03-01T02:27:03;22;22;
71858;PMS5003;59713;50.866;4.324;2023-03-01T02:28:05;22;22;
71858;PMS5003;59713;50.866;4.324;2023-03-01T02:29:03;28;25;
71858;PMS5003;59713;50.866;4.324;2023-03-01T02:30:04;28;25;
71858;PMS5003;59713;50.866;4.324;2023-03-01T02:31:04;28;25;
71858;PMS5003;59713;50.866;4.324;2023-03-01T02:32:03;24;23;
71858;PMS5003;59713;50.866;4.324;2023-03-01T02:32:03;24;23;
71858;PMS5003;59713;50.866;4.324;2023-03-01T02:33:03;24;23;
71858;PMS5003;59713;50.866;4.324;2023-03-01T02:34:04;24;23;
71858;PMS5003;59713;50.866;4.324;2023-03-01T02:35:03;20;17;
71858;PMS5003;59713;50.866;4.324;2023-03-01T02:36:04;20;17;
71858;PMS5003;59713;50.866;4.324;2023-03-01T02:37:06;20;17;
71858;PMS5003;59713;50.866;4.324;2023-03-01T02:38:03;23;21;
71858;PMS5003;59713;50.866;4.324;2023-03-01T02:39:05;23;21;
71858;PMS5003;59713;50.866;4.324;2023-03-01T02:40:05;23;21;
71858;PMS5003;59713;50.866;4.324;2023-03-01T02:41:03;30;27;
71858;PMS5003;59713;50.866;4.324;2023-03-01T02:41:03;30;27;
71858;PMS5003;59713;50.866;4.324;2023-03-01T02:42:03;30;27;
71858;PMS5003;59713;50.866;4.324;2023-03-01T02:43:04;30;27;
71858;PMS5003;59713;50.866;4.324;2023-03-01T02:44:03;27;26;
71858;PMS5003;59713;50.866;4.324;2023-03-01T02:45:04;27;26;
71858;PMS5003;59713;50.866;4.324;2023-03-01T02:46:05;27;26;
71858;PMS5003;59713;50.866;4.324;2023-03-01T02:47:04;24;22;
71858;PMS5003;59713;50.866;4.324;2023-03-01T02:48:03;24;22;
71858;PMS5003;59713;50.866;4.324;2023-03-01T02:49:15;24;22;
71858;PMS5003;59713;50.866;4.324;2023-03-01T02:50:08;25;24;
71858;PMS5003;59713;50.866;4.324;2023-03-01T02:51:04;25;24;
71858;PMS5003;59713;50.866;4.324;2023-03-01T02:51:04;25;24;
71858;PMS5003;59713;50.866;4.324;2023-03-01T02:52:07;25;24;
71858;PMS5003;59713;50.866;4.324;2023-03-01T02:53:04;27;26;
71858;PMS5003;59713;50.866;4.324;2023-03-01T02:54:07;27;26;
71858;PMS5003;59713;50.866;4.324;2023-03-01T02:55:04;27;26;
71858;PMS5003;59713;50.866;4.324;2023-03-01T02:56:03;19;19;
71858;PMS5003;59713;50.866;4.324;2023-03-01T02:57:03;19;19;
71858;PMS5003;59713;50.866;4.324;2023-03-01T02:58:03;19;19;
71858;PMS5003;59713;50.866;4.324;2023-03-01T02:59:03;24;24;
71858;PMS5003;59713;50.866;4.324;2023-03-01T03:00:06;24;24;
71858;PMS5003;59713;50.866;4.324;2023-03-01T03:00:07;24;24;
71858;PMS5003;59713;50.866;4.324;2023-03-01T03:01:03;24;24;
71858;PMS5003;59713;50.866;4.324;2023-03-01T03:02:03;23;22;
71858;PMS5003;59713;50.866;4.324;2023-03-01T03:03:03;23;22;
71858;PMS5003;59713;50.866;4.324;2023-03-01T03:04:04;23;22;
71858;PMS5003;59713;50.866;4.324;2023-03-01T03:05:04;26;21;
71858;PMS5003;59713;50.866;4.324;2023-03-01T03:06:03;26;21;
71858;PMS5003;59713;50.866;4.324;2023-03-01T03:07:03;26;21;
71858;PMS5003;59713;50.866;4.324;2023-03-01T03:08:03;23;21;
71858;PMS5003;59713;50.866;4.324;2023-03-01T03:09:04;23;21;
71858;PMS5003;59713;50.866;4.324;2023-03-01T03:09:04;23;21;
71858;PMS5003;59713;50.866;4.324;2023-03-01T03:10:09;23;21;
71858;PMS5003;59713;50.866;4.324;2023-03-01T03:11:03;26;24;
71858;PMS5003;59713;50.866;4.324;2023-03-01T03:12:04;26;24;
71858;PMS5003;59713;50.866;4.324;2023-03-01T03:13:04;26;24;
71858;PMS5003;59713;50.866;4.324;2023-03-01T03:14:03;27;23;
71858;PMS5003;59713;50.866;4.324;2023-03-01T03:15:04;27;23;
71858;PMS5003;59713;50.866;4.324;2023-03-01T03:16:04;27;23;
71858;PMS5003;59713;50.866;4.324;2023-03-01T03:17:03;21;21;
71858;PMS5003;59713;50.866;4.324;2023-03-01T03:18:04;21;21;
71858;PMS5003;59713;50.866;4.324;2023-03-01T03:18:04;21;21;
71858;PMS5003;59713;50.866;4.324;2023-03-01T03:19:03;21;21;
71858;PMS5003;59713;50.866;4.324;2023-03-01T03:20:04;24;22;
71858;PMS5003;59713;50.866;4.324;2023-03-01T03:21:03;24;22;
71858;PMS5003;59713;50.866;4.324;2023-03-01T03:22:03;24;22;
71858;PMS5003;59713;50.866;4.324;2023-03-01T03:23:03;26;25;
71858;PMS5003;59713;50.866;4.324;2023-03-01T03:24:04;26;25;
71858;PMS5003;59713;50.866;4.324;2023-03-01T03:25:05;26;25;
71858;PMS5003;59713;50.866;4.324;2023-03-01T03:26:04;25;23;
71858;PMS5003;59713;50.866;4.324;2023-03-01T03:27:03;25;23;
71858;PMS5003;59713;50.866;4.324;2023-03-01T03:28:03;25;23;
71858;PMS5003;59713;50.866;4.324;2023-03-01T03:28:04;25;23;
71858;PMS5003;59713;50.866;4.324;2023-03-01T03:29:03;27;26;
71858;PMS5003;59713;50.866;4.324;2023-03-01T03:30:04;27;26;
71858;PMS5003;59713;50.866;4.324;2023-03-01T03:31:05;27;26;
71858;PMS5003;59713;50.866;4.324;2023-03-01T03:32:03;20;20;
71858;PMS5003;59713;50.866;4.324;2023-03-01T03:33:04;20;20;
71858;PMS5003;59713;50.866;4.324;2023-03-01T03:34:03;20;20;
71858;PMS5003;59713;50.866;4.324;2023-03-01T03:35:04;28;25;
71858;PMS5003;59713;50.866;4.324;2023-03-01T03:36:04;28;25;
71858;PMS5003;59713;50.866;4.324;2023-03-01T03:37:03;28;25;
71858;PMS5003;59713;50.866;4.324;2023-03-01T03:37:03;28;25;
71858;PMS5003;59713;50.866;4.324;2023-03-01T03:38:04;23;21;
71858;PMS5003;59713;50.866;4.324;2023-03-01T03:39:04;23;21;
71858;PMS5003;59713;50.866;4.324;2023-03-01T03:40:04;23;21;
71858;PMS5003;59713;50.866;4.324;2023-03-01T03:41:04;29;27;
71858;PMS5003;59713;50.866;4.324;2023-03-01T03:42:03;29;27;
71858;PMS5003;59713;50.866;4.324;2023-03-01T03:43:04;29;27;
71858;PMS5003;59713;50.866;4.324;2023-03-01T03:44:03;27;26;
71858;PMS5003;59713;50.866;4.324;2023-03-01T03:45:04;27;26;
71858;PMS5003;59713;50.866;4.324;2023-03-01T03:46:04;27;26;
71858;PMS5003;59713;50.866;4.324;2023-03-01T03:46:04;27;26;
71858;PMS5003;59713;50.866;4.324;2023-03-01T03:47:03;25;22;
71858;PMS5003;59713;50.866;4.324;2023-03-01T03:48:04;25;22;
71858;PMS5003;59713;50.866;4.324;2023-03-01T03:49:03;25;22;
71858;PMS5003;59713;50.866;4.324;2023-03-01T03:50:04;24;21;
71858;PMS5003;59713;50.866;4.324;2023-03-01T03:51:04;24;21;
71858;PMS5003;59713;50.866;4.324;2023-03-01T03:52:03;24;21;
71858;PMS5003;59713;50.866;4.324;2023-03-01T03:53:04;24;23;
71858;PMS5003;59713;50.866;4.324;2023-03-01T03:54:04;24;23;
71858;PMS5003;59713;50.866;4.324;2023-03-01T03:55:04;24;23;
71858;PMS5003;59713;50.866;4.324;2023-03-01T03:55:04;24;23;
71858;PMS5003;59713;50.866;4.324;2023-03-01T03:56:04;32;23;
71858;PMS5003;59713;50.866;4.324;2023-03-01T03:57:03;32;23;
71858;PMS5003;59713;50.866;4.324;2023-03-01T03:58:03;32;23;
71858;PMS5003;59713;50.866;4.324;2023-03-01T03:59:03;29;26;
71858;PMS5003;59713;50.866;4.324;2023-03-01T04:00:04;29;26;
71858;PMS5003;59713;50.866;4.324;2023-03-01T04:01:03;29;26;
71858;PMS5003;59713;50.866;4.324;2023-03-01T04:02:03;25;24;
71858;PMS5003;59713;50.866;4.324;2023-03-01T04:03:04;25;24;
71858;PMS5003;59713;50.866;4.324;2023-03-01T04:04:04;25;24;
71858;PMS5003;59713;50.866;4.324;2023-03-01T04:05:04;18;18;
71858;PMS5003;59713;50.866;4.324;2023-03-01T04:05:04;18;18;
71858;PMS5003;59713;50.866;4.324;2023-03-01T04:06:04;18;18;
71858;PMS5003;59713;50.866;4.324;2023-03-01T04:07:03;18;18;
71858;PMS5003;59713;50.866;4.324;2023-03-01T04:08:04;30;25;
71858;PMS5003;59713;50.866;4.324;2023-03-01T04:09:03;30;25;
71858;PMS5003;59713;50.866;4.324;2023-03-01T04:10:04;30;25;
71858;PMS5003;59713;50.866;4.324;2023-03-01T04:11:04;32;25;
71858;PMS5003;59713;50.866;4.324;2023-03-01T04:12:04;32;25;
71858;PMS5003;59713;50.866;4.324;2023-03-01T04:13:03;32;25;
71858;PMS5003;59713;50.866;4.324;2023-03-01T04:14:03;18;18;
71858;PMS5003;59713;50.866;4.324;2023-03-01T04:15:05;18;18;
71858;PMS5003;59713;50.866;4.324;2023-03-01T04:15:05;18;18;
71858;PMS5003;59713;50.866;4.324;2023-03-01T04:16:04;18;18;
71858;PMS5003;59713;50.866;4.324;2023-03-01T04:17:03;26;24;
71858;PMS5003;59713;50.866;4.324;2023-03-01T04:18:06;26;24;
71858;PMS5003;59713;50.866;4.324;2023-03-01T04:19:03;26;24;
71858;PMS5003;59713;50.866;4.324;2023-03-01T04:20:04;22;20;
71858;PMS5003;59713;50.866;4.324;2023-03-01T04:21:04;22;20;
71858;PMS5003;59713;50.866;4.324;2023-03-01T04:22:03;22;20;
71858;PMS5003;59713;50.866;4.324;2023-03-01T04:23:04;28;27;
71858;PMS5003;59713;50.866;4.324;2023-03-01T04:24:04;28;27;
71858;PMS5003;59713;50.866;4.324;2023-03-01T04:24:04;28;27;
71858;PMS5003;59713;50.866;4.324;2023-03-01T04:25:04;28;27;
71858;PMS5003;59713;50.866;4.324;2023-03-01T04:26:03;28;26;
71858;PMS5003;59713;50.866;4.324;2023-03-01T04:27:03;28;26;
71858;PMS5003;59713;50.866;4.324;2023-03-01T04:28:03;28;26;
71858;PMS5003;59713;50.866;4.324;2023-03-01T04:29:03;32;27;
71858;PMS5003;59713;50.866;4.324;2023-03-01T04:30:04;32;27;
71858;PMS5003;59713;50.866;4.324;2023-03-01T04:31:04;32;27;
71858;PMS5003;59713;50.866;4.324;2023-03-01T04:32:04;25;24;
71858;PMS5003;59713;50.866;4.324;2023-03-01T04:33:04;25;24;
71858;PMS5003;59713;50.866;4.324;2023-03-01T04:34:03;25;24;
71858;PMS5003;59713;50.866;4.324;2023-03-01T04:34:03;25;24;
71858;PMS5003;59713;50.866;4.324;2023-03-01T04:35:04;32;26;
71858;PMS5003;59713;50.866;4.324;2023-03-01T04:36:04;32;26;
71858;PMS5003;59713;50.866;4.324;2023-03-01T04:37:03;32;26;
71858;PMS5003;59713;50.866;4.324;2023-03-01T04:38:04;29;26;
71858;PMS5003;59713;50.866;4.324;2023-03-01T04:39:03;29;26;
71858;PMS5003;59713;50.866;4.324;2023-03-01T04:40:04;29;26;
71858;PMS5003;59713;50.866;4.324;2023-03-01T04:41:04;26;22;
71858;PMS5003;59713;50.866;4.324;2023-03-01T04:42:04;26;22;
71858;PMS5003;59713;50.866;4.324;2023-03-01T04:43:04;26;22;
71858;PMS5003;59713;50.866;4.324;2023-03-01T04:44:04;24;23;
71858;PMS5003;59713;50.866;4.324;2023-03-01T04:45:04;24;23;
71858;PMS5003;59713;50.866;4.324;2023-03-01T04:46:04;24;23;
71858;PMS5003;59713;50.866;4.324;2023-03-01T04:47:03;34;27;
71858;PMS5003;59713;50.866;4.324;2023-03-01T04:48:04;34;27;
71858;PMS5003;59713;50.866;4.324;2023-03-01T04:49:04;34;27;
71858;PMS5003;59713;50.866;4.324;2023-03-01T04:50:04;22;20;
71858;PMS5003;59713;50.866;4.324;2023-03-01T04:51:05;22;20;
71858;PMS5003;59713;50.866;4.324;2023-03-01T04:52:04;22;20;
71858;PMS5003;59713;50.866;4.324;2023-03-01T04:52:04;22;20;
71858;PMS5003;59713;50.866;4.324;2023-03-01T04:53:03;25;22;
71858;PMS5003;59713;50.866;4.324;2023-03-01T04:54:05;25;22;
71858;PMS5003;59713;50.866;4.324;2023-03-01T04:55:04;25;22;
71858;PMS5003;59713;50.866;4.324;2023-03-01T04:56:04;26;25;
71858;PMS5003;59713;50.866;4.324;2023-03-01T04:57:04;26;25;
71858;PMS5003;59713;50.866;4.324;2023-03-01T04:58:03;26;25;
71858;PMS5003;59713;50.866;4.324;2023-03-01T04:59:03;31;27;
71858;PMS5003;59713;50.866;4.324;2023-03-01T05:00:04;31;27;
71858;PMS5003;59713;50.866;4.324;2023-03-01T05:01:07;31;27;
71858;PMS5003;59713;50.866;4.324;2023-03-01T05:02:04;27;27;
71858;PMS5003;59713;50.866;4.324;2023-03-01T05:02:04;27;27;
71858;PMS5003;59713;50.866;4.324;2023-03-01T05:03:04;27;27;
71858;PMS5003;59713;50.866;4.324;2023-03-01T05:04:04;27;27;
71858;PMS5003;59713;50.866;4.324;2023-03-01T05:05:04;20;20;
71858;PMS5003;59713;50.866;4.324;2023-03-01T05:06:04;20;20;
71858;PMS5003;59713;50.866;4.324;2023-03-01T05:07:03;20;20;
71858;PMS5003;59713;50.866;4.324;2023-03-01T05:08:05;28;27;
71858;PMS5003;59713;50.866;4.324;2023-03-01T05:09:04;28;27;
71858;PMS5003;59713;50.866;4.324;2023-03-01T05:10:04;28;27;
71858;PMS5003;59713;50.866;4.324;2023-03-01T05:11:04;23;20;
71858;PMS5003;59713;50.866;4.324;2023-03-01T05:11:04;23;20;
71858;PMS5003;59713;50.866;4.324;2023-03-01T05:12:04;23;20;
71858;PMS5003;59713;50.866;4.324;2023-03-01T05:13:04;23;20;
71858;PMS5003;59713;50.866;4.324;2023-03-01T05:14:04;34;32;
71858;PMS5003;59713;50.866;4.324;2023-03-01T05:15:04;34;32;
71858;PMS5003;59713;50.866;4.324;2023-03-01T05:16:04;34;32;
71858;PMS5003;59713;50.866;4.324;2023-03-01T05:17:04;26;22;
71858;PMS5003;59713;50.866;4.324;2023-03-01T05:18:04;26;22;
71858;PMS5003;59713;50.866;4.324;2023-03-01T05:19:04;26;22;
71858;PMS5003;59713;50.866;4.324;2023-03-01T05:20:04;33;24;
71858;PMS5003;59713;50.866;4.324;2023-03-01T05:20:04;33;24;
71858;PMS5003;59713;50.866;4.324;2023-03-01T05:21:05;33;24;
71858;PMS5003;59713;50.866;4.324;2023-03-01T05:22:04;33;24;
71858;PMS5003;59713;50.866;4.324;2023-03-01T05:23:04;34;28;
71858;PMS5003;59713;50.866;4.324;2023-03-01T05:24:06;34;28;
71858;PMS5003;59713;50.866;4.324;2023-03-01T05:25:04;34;28;
71858;PMS5003;59713;50.866;4.324;2023-03-01T05:26:04;29;26;
71858;PMS5003;59713;50.866;4.324;2023-03-01T05:27:04;29;26;
71858;PMS5003;59713;50.866;4.324;2023-03-01T05:28:04;29;26;
71858;PMS5003;59713;50.866;4.324;2023-03-01T05:29:04;23;17;
71858;PMS5003;59713;50.866;4.324;2023-03-01T05:30:04;23;17;
71858;PMS5003;59713;50.866;4.324;2023-03-01T05:30:04;23;17;
71858;PMS5003;59713;50.866;4.324;2023-03-01T05:31:04;23;17;
71858;PMS5003;59713;50.866;4.324;2023-03-01T05:32:04;25;25;
71858;PMS5003;59713;50.866;4.324;2023-03-01T05:33:04;25;25;
71858;PMS5003;59713;50.866;4.324;2023-03-01T05:34:04;25;25;
71858;PMS5003;59713;50.866;4.324;2023-03-01T05:35:04;29;24;
71858;PMS5003;59713;50.866;4.324;2023-03-01T05:36:04;29;24;
71858;PMS5003;59713;50.866;4.324;2023-03-01T05:37:04;29;24;
71858;PMS5003;59713;50.866;4.324;2023-03-01T05:38:04;22;21;
71858;PMS5003;59713;50.866;4.324;2023-03-01T05:39:04;22;21;
71858;PMS5003;59713;50.866;4.324;2023-03-01T05:39:04;22;21;
71858;PMS5003;59713;50.866;4.324;2023-03-01T05:40:04;22;21;
71858;PMS5003;59713;50.866;4.324;2023-03-01T05:41:04;23;22;
71858;PMS5003;59713;50.866;4.324;2023-03-01T05:43:04;23;22;
71858;PMS5003;59713;50.866;4.324;2023-03-01T05:44:05;23;20;
71858;PMS5003;59713;50.866;4.324;2023-03-01T05:45:04;23;20;
71858;PMS5003;59713;50.866;4.324;2023-03-01T05:46:04;23;20;
71858;PMS5003;59713;50.866;4.324;2023-03-01T05:47:04;26;25;
71858;PMS5003;59713;50.866;4.324;2023-03-01T05:48:04;26;25;
71858;PMS5003;59713;50.866;4.324;2023-03-01T05:48:04;26;25;
71858;PMS5003;59713;50.866;4.324;2023-03-01T05:49:04;26;25;
71858;PMS5003;59713;50.866;4.324;2023-03-01T05:50:15;26;25;
71858;PMS5003;59713;50.866;4.324;2023-03-01T05:51:04;26;25;
71858;PMS5003;59713;50.866;4.324;2023-03-01T05:52:04;26;25;
71858;PMS5003;59713;50.866;4.324;2023-03-01T05:53:04;30;25;
71858;PMS5003;59713;50.866;4.324;2023-03-01T05:55:04;30;25;
71858;PMS5003;59713;50.866;4.324;2023-03-01T05:56:04;33;25;
71858;PMS5003;59713;50.866;4.324;2023-03-01T05:57:04;33;25;
71858;PMS5003;59713;50.866;4.324;2023-03-01T05:57:04;33;25;
71858;PMS5003;59713;50.866;4.324;2023-03-01T05:58:05;33;25;
71858;PMS5003;59713;50.866;4.324;2023-03-01T05:59:04;25;25;
71858;PMS5003;59713;50.866;4.324;2023-03-01T06:00:04;25;25;
71858;PMS5003;59713;50.866;4.324;2023-03-01T06:01:04;25;25;
71858;PMS5003;59713;50.866;4.324;2023-03-01T06:02:04;27;26;